createdAt,value
2019-02-20T00:04:44.108Z,1014.08
2019-02-20T00:09:39.091Z,1014.08
2019-02-20T00:14:35.174Z,1014.06
2019-02-20T00:19:31.787Z,1014.08
2019-02-20T00:24:27.055Z,1014.16
2019-02-20T00:29:22.722Z,1014.24
2019-02-20T00:34:18.530Z,1014.15
2019-02-20T00:39:14.189Z,1014.17
2019-02-20T00:44:09.784Z,1014.07
2019-02-20T00:49:05.320Z,1014.22
2019-02-20T00:54:00.977Z,1014.20
2019-02-20T00:58:57.778Z,1014.21
2019-02-20T01:03:53.147Z,1014.26
2019-02-20T01:08:49.660Z,1014.25
2019-02-20T01:13:44.875Z,1014.25
2019-02-20T01:18:40.677Z,1014.25
2019-02-20T01:23:37.362Z,1014.30
2019-02-20T01:28:34.449Z,1014.28
2019-02-20T01:33:29.831Z,1014.18
2019-02-20T01:38:25.955Z,1014.27
2019-02-20T01:43:22.956Z,1014.15
2019-02-20T01:48:18.502Z,1014.25
2019-02-20T01:53:14.171Z,1014.17
2019-02-20T01:58:09.933Z,1014.20
2019-02-20T02:03:05.788Z,1014.21
2019-02-20T02:08:01.489Z,1014.11
2019-02-20T02:12:57.091Z,1014.25
2019-02-20T02:17:53.709Z,1014.16
2019-02-20T02:22:48.669Z,1014.14
2019-02-20T02:27:44.499Z,1014.13
2019-02-20T02:32:40.215Z,1014.03
2019-02-20T02:37:35.727Z,1014.01
2019-02-20T02:42:31.645Z,1014.00
2019-02-20T02:47:28.010Z,1013.94
2019-02-20T02:52:23.731Z,1013.92
2019-02-20T02:57:20.374Z,1013.96
2019-02-20T03:02:16.065Z,1014.00
2019-02-20T03:07:12.740Z,1013.96
2019-02-20T03:12:09.047Z,1014.00
2019-02-20T03:17:04.564Z,1013.97
2019-02-20T03:22:00.307Z,1014.05
2019-02-20T03:26:55.820Z,1014.06
2019-02-20T03:31:52.481Z,1014.02
2019-02-20T03:36:47.861Z,1014.08
2019-02-20T03:41:43.656Z,1014.05
2019-02-20T03:46:39.687Z,1014.10
2019-02-20T03:51:36.414Z,1014.12
2019-02-20T03:56:31.756Z,1014.10
2019-02-20T04:01:28.828Z,1014.13
2019-02-20T04:06:25.189Z,1014.19
2019-02-20T04:11:21.073Z,1014.20
2019-02-20T04:16:16.616Z,1014.10
2019-02-20T04:21:12.485Z,1014.11
2019-02-20T04:26:09.948Z,1014.12
2019-02-20T04:31:05.216Z,1014.08
2019-02-20T04:36:00.949Z,1014.13
2019-02-20T04:40:56.711Z,1014.14
2019-02-20T04:45:52.370Z,1014.08
2019-02-20T04:50:49.203Z,1014.12
2019-02-20T04:55:44.570Z,1014.14
2019-02-20T05:00:41.379Z,1014.14
2019-02-20T05:05:37.698Z,1014.16
2019-02-20T05:10:32.967Z,1014.15
2019-02-20T05:15:28.511Z,1014.19
2019-02-20T05:20:24.443Z,1014.18
2019-02-20T05:25:20.396Z,1014.10
2019-02-20T05:30:16.905Z,1014.10
2019-02-20T05:35:13.280Z,1014.13
2019-02-20T05:40:08.527Z,1014.16
2019-02-20T05:45:04.099Z,1014.12
2019-02-20T05:49:59.699Z,1014.14
2019-02-20T05:54:55.306Z,1014.13
2019-02-20T05:59:52.068Z,1014.13
2019-02-20T06:04:47.296Z,1014.20
2019-02-20T06:09:43.082Z,1014.32
2019-02-20T06:14:38.663Z,1014.32
2019-02-20T06:19:35.367Z,1014.34
2019-02-20T06:24:31.678Z,1014.40
2019-02-20T06:29:27.021Z,1014.42
2019-02-20T06:34:23.559Z,1014.39
2019-02-20T06:39:19.103Z,1014.55
2019-02-20T06:44:14.680Z,1014.49
2019-02-20T06:49:11.411Z,1014.56
2019-02-20T06:54:07.168Z,1014.71
2019-02-20T06:59:02.869Z,1014.78
2019-02-20T07:03:58.525Z,1014.84
2019-02-20T07:08:54.208Z,1014.91
2019-02-20T07:13:49.928Z,1014.84
2019-02-20T07:18:45.598Z,1014.91
2019-02-20T07:23:40.913Z,1015.07
2019-02-20T07:28:36.665Z,1014.94
2019-02-20T07:33:33.583Z,1015.10
2019-02-20T07:38:30.325Z,1015.11
2019-02-20T07:43:26.532Z,1015.11
2019-02-20T07:48:22.385Z,1015.24
2019-02-20T07:53:18.867Z,1015.23
2019-02-20T07:58:14.701Z,1015.30
2019-02-20T08:03:10.536Z,1015.36
2019-02-20T08:08:06.467Z,1015.46
2019-02-20T08:13:02.053Z,1015.59
2019-02-20T08:17:59.246Z,1015.61
2019-02-20T08:22:54.866Z,1015.66
2019-02-20T08:27:50.979Z,1015.64
2019-02-20T08:32:47.731Z,1015.71
2019-02-20T08:37:43.159Z,1015.73
2019-02-20T08:42:40.699Z,1015.76
2019-02-20T08:47:37.081Z,1015.86
2019-02-20T08:52:32.450Z,1015.82
2019-02-20T08:57:28.132Z,1015.90
2019-02-20T09:02:24.462Z,1015.91
2019-02-20T09:07:20.207Z,1016.01
2019-02-20T09:12:16.032Z,1015.96
2019-02-20T09:17:12.754Z,1016.00
2019-02-20T09:22:08.667Z,1015.95
2019-02-20T09:27:04.500Z,1016.05
2019-02-20T09:32:01.027Z,1016.03
2019-02-20T09:36:56.361Z,1016.07
2019-02-20T09:41:52.473Z,1016.05
2019-02-20T09:46:49.387Z,1016.12
2019-02-20T09:51:46.065Z,1016.21
2019-02-20T09:56:41.989Z,1016.14
2019-02-20T10:01:38.366Z,1016.14
2019-02-20T10:06:34.499Z,1016.22
2019-02-20T10:11:30.426Z,1016.24
2019-02-20T10:16:27.343Z,1016.22
2019-02-20T10:21:23.639Z,1016.38
2019-02-20T10:26:19.570Z,1016.26
2019-02-20T10:31:15.638Z,1016.48
2019-02-20T10:36:11.393Z,1016.44
2019-02-20T10:41:07.681Z,1016.50
2019-02-20T10:46:03.405Z,1016.52
2019-02-20T10:50:59.301Z,1016.42
2019-02-20T10:55:55.208Z,1016.48
2019-02-20T11:00:51.554Z,1016.56
2019-02-20T11:05:47.367Z,1016.58
2019-02-20T11:10:43.326Z,1016.58
2019-02-20T11:15:39.651Z,1016.63
2019-02-20T11:20:35.423Z,1016.58
2019-02-20T11:25:32.340Z,1016.50
2019-02-20T11:30:27.861Z,1016.54
2019-02-20T11:35:23.546Z,1016.62
2019-02-20T11:40:19.655Z,1016.55
2019-02-20T11:45:15.478Z,1016.51
2019-02-20T11:50:11.252Z,1016.48
2019-02-20T11:55:07.056Z,1016.55
2019-02-20T12:00:02.802Z,1016.51
2019-02-20T12:04:59.586Z,1016.38
2019-02-20T12:09:54.735Z,1016.41
2019-02-20T12:14:50.679Z,1016.43
2019-02-20T12:19:46.351Z,1016.50
2019-02-20T12:24:43.121Z,1016.43
2019-02-20T12:29:39.601Z,1016.38
2019-02-20T12:34:36.223Z,1016.39
2019-02-20T12:39:31.984Z,1016.37
2019-02-20T12:44:27.807Z,1016.32
2019-02-20T12:49:24.602Z,1016.27
2019-02-20T12:54:20.514Z,1016.27
2019-02-20T12:59:16.041Z,1016.32
2019-02-20T13:04:13.003Z,1016.21
2019-02-20T13:09:08.475Z,1016.25
2019-02-20T13:14:04.403Z,1016.23
2019-02-20T13:18:59.819Z,1016.23
2019-02-20T13:23:55.810Z,1016.14
2019-02-20T13:28:51.977Z,1016.20
2019-02-20T13:33:47.581Z,1016.31
2019-02-20T13:38:43.286Z,1016.22
2019-02-20T13:43:39.795Z,1016.11
2019-02-20T13:48:35.548Z,1016.08
2019-02-20T13:53:31.207Z,1016.13
2019-02-20T13:58:27.915Z,1016.14
2019-02-20T14:03:23.401Z,1016.22
2019-02-20T14:08:19.130Z,1016.20
2019-02-20T14:13:14.751Z,1016.17
2019-02-20T14:18:10.723Z,1016.16
2019-02-20T14:23:07.185Z,1016.14
2019-02-20T14:28:02.940Z,1016.16
2019-02-20T14:32:58.720Z,1016.05
2019-02-20T14:37:54.565Z,1016.11
2019-02-20T14:42:50.354Z,1016.09
2019-02-20T14:47:46.244Z,1016.08
2019-02-20T14:52:41.966Z,1016.09
2019-02-20T14:57:37.684Z,1016.21
2019-02-20T15:02:33.467Z,1016.19
2019-02-20T15:07:29.070Z,1016.16
2019-02-20T15:12:24.962Z,1016.10
2019-02-20T15:17:20.613Z,1016.13
2019-02-20T15:22:17.608Z,1016.13
2019-02-20T15:27:13.980Z,1016.24
2019-02-20T15:32:10.535Z,1016.19
2019-02-20T15:37:05.801Z,1016.16
2019-02-20T15:42:02.638Z,1016.24
2019-02-20T15:46:58.175Z,1016.23
2019-02-20T15:51:53.821Z,1016.22
2019-02-20T15:56:49.491Z,1016.23
2019-02-20T16:01:45.142Z,1016.21
2019-02-20T16:06:40.809Z,1016.33
2019-02-20T16:11:36.952Z,1016.38
2019-02-20T16:16:32.634Z,1016.32
2019-02-20T16:21:29.663Z,1016.40
2019-02-20T16:26:25.034Z,1016.38
2019-02-20T16:31:20.757Z,1016.52
2019-02-20T16:36:17.311Z,1016.60
2019-02-20T16:41:12.796Z,1016.45
2019-02-20T16:46:09.506Z,1016.54
2019-02-20T16:51:04.799Z,1016.52
2019-02-20T16:56:00.613Z,1016.56
2019-02-20T17:00:58.069Z,1016.60
2019-02-20T17:05:53.168Z,1016.67
2019-02-20T17:10:49.097Z,1016.73
2019-02-20T17:15:45.779Z,1016.81
2019-02-20T17:20:41.494Z,1016.78
2019-02-20T17:25:37.345Z,1016.87
2019-02-20T17:30:33.256Z,1016.92
2019-02-20T17:35:28.921Z,1017.02
2019-02-20T17:40:25.790Z,1017.06
2019-02-20T17:45:21.229Z,1017.03
2019-02-20T17:50:17.813Z,1017.14
2019-02-20T17:55:13.530Z,1017.18
2019-02-20T18:00:10.110Z,1017.27
2019-02-20T18:05:06.632Z,1017.22
2019-02-20T18:10:02.162Z,1017.21
2019-02-20T18:14:58.986Z,1017.09
2019-02-20T18:19:54.019Z,1017.19
2019-02-20T18:24:51.975Z,1017.24
2019-02-20T18:29:48.449Z,1017.21
2019-02-20T18:34:43.825Z,1017.26
2019-02-20T18:39:40.539Z,1017.30
2019-02-20T18:44:37.021Z,1017.24
2019-02-20T18:49:32.333Z,1017.30
2019-02-20T18:54:29.269Z,1017.36
2019-02-20T18:59:25.656Z,1017.36
2019-02-20T19:04:21.315Z,1017.34
2019-02-20T19:09:17.349Z,1017.37
2019-02-20T19:19:13.946Z,1017.38
2019-02-20T19:24:09.172Z,1017.40
2019-02-20T19:29:06.357Z,1017.40
2019-02-20T19:34:02.720Z,1017.45
2019-02-20T19:38:57.775Z,1017.43
2019-02-20T19:43:54.305Z,1017.36
2019-02-20T19:48:54.131Z,1017.37
2019-02-20T19:53:49.959Z,1017.38
2019-02-20T19:58:54.427Z,1017.36
2019-02-20T20:03:46.143Z,1017.32
2019-02-20T20:08:42.437Z,1017.26
2019-02-20T20:13:37.840Z,1017.33
2019-02-20T20:18:34.693Z,1017.26
2019-02-20T20:23:29.969Z,1017.23
2019-02-20T20:28:26.682Z,1017.21
2019-02-20T20:33:22.869Z,1017.22
2019-02-20T20:38:18.352Z,1017.20
2019-02-20T20:43:14.157Z,1017.20
2019-02-20T20:48:12.073Z,1017.27
2019-02-20T20:53:08.445Z,1017.30
2019-02-20T20:58:03.773Z,1017.29
2019-02-20T21:02:59.407Z,1017.31
2019-02-20T21:07:55.845Z,1017.21
2019-02-20T21:12:53.662Z,1017.21
2019-02-20T21:17:49.062Z,1017.21
2019-02-20T21:22:45.379Z,1017.20
2019-02-20T21:27:42.190Z,1017.27
2019-02-20T21:32:39.282Z,1017.20
2019-02-20T21:37:35.431Z,1017.29
2019-02-20T21:42:31.542Z,1017.31
2019-02-20T21:47:28.115Z,1017.27
2019-02-20T21:52:25.225Z,1017.35
2019-02-20T21:57:20.492Z,1017.44
2019-02-20T22:02:16.366Z,1017.44
2019-02-20T22:07:12.132Z,1017.54
2019-02-20T22:12:07.399Z,1017.48
2019-02-20T22:17:04.096Z,1017.49
2019-02-20T22:22:00.992Z,1017.48
2019-02-20T22:26:56.368Z,1017.45
2019-02-20T22:31:53.255Z,1017.51
2019-02-20T22:36:49.756Z,1017.53
2019-02-20T22:41:45.423Z,1017.51
2019-02-20T22:46:42.279Z,1017.58
2019-02-20T22:51:37.869Z,1017.60
2019-02-20T22:56:33.774Z,1017.53
2019-02-20T23:01:31.483Z,1017.58
2019-02-20T23:06:28.158Z,1017.59
2019-02-20T23:11:23.609Z,1017.63
2019-02-20T23:16:19.200Z,1017.65
2019-02-20T23:21:15.999Z,1017.64
2019-02-20T23:26:11.635Z,1017.63
2019-02-20T23:31:07.373Z,1017.73
2019-02-20T23:36:03.404Z,1017.77
2019-02-20T23:40:59.205Z,1017.75
2019-02-20T23:45:54.778Z,1017.76
2019-02-20T23:50:50.331Z,1017.68
2019-02-20T23:55:45.824Z,1017.89
